sensor_id;sensor_type;location;lat;lon;timestamp;temperature;humidity
9118;DHT22;4594;50.994;7.126;2024-01-10T00:02:04;-4.30;34.20
9118;DHT22;4594;50.994;7.126;2024-01-10T00:04:30;-4.20;34.40
9118;DHT22;4594;50.994;7.126;2024-01-10T00:06:56;-4.20;34.40
9118;DHT22;4594;50.994;7.126;2024-01-10T00:09:21;-4.20;34.30
9118;DHT22;4594;50.994;7.126;2024-01-10T00:14:18;-4.20;34.30
9118;DHT22;4594;50.994;7.126;2024-01-10T00:16:44;-4.20;34.30
9118;DHT22;4594;50.994;7.126;2024-01-10T00:19:09;-4.10;34.30
9118;DHT22;4594;50.994;7.126;2024-01-10T00:21:35;-4.10;34.30
9118;DHT22;4594;50.994;7.126;2024-01-10T00:24:01;-4.10;34.30
9118;DHT22;4594;50.994;7.126;2024-01-10T00:26:27;-4.10;34.30
9118;DHT22;4594;50.994;7.126;2024-01-10T00:28:53;-4.10;34.30
9118;DHT22;4594;50.994;7.126;2024-01-10T00:31:18;-4.10;34.30
9118;DHT22;4594;50.994;7.126;2024-01-10T00:33:44;-4.10;34.20
9118;DHT22;4594;50.994;7.126;2024-01-10T00:36:10;-4.20;34.10
9118;DHT22;4594;50.994;7.126;2024-01-10T00:38:36;-4.20;34.10
9118;DHT22;4594;50.994;7.126;2024-01-10T00:41:02;-4.20;34.00
9118;DHT22;4594;50.994;7.126;2024-01-10T00:43:28;-4.20;34.10
9118;DHT22;4594;50.994;7.126;2024-01-10T00:45:54;-4.20;34.10
9118;DHT22;4594;50.994;7.126;2024-01-10T00:48:19;-4.20;34.10
9118;DHT22;4594;50.994;7.126;2024-01-10T00:50:45;-4.20;34.20
9118;DHT22;4594;50.994;7.126;2024-01-10T00:53:11;-4.30;34.20
9118;DHT22;4594;50.994;7.126;2024-01-10T00:55:37;-4.20;34.30
9118;DHT22;4594;50.994;7.126;2024-01-10T00:58:03;-4.20;34.30
9118;DHT22;4594;50.994;7.126;2024-01-10T01:00:29;-4.20;34.30
9118;DHT22;4594;50.994;7.126;2024-01-10T01:02:54;-4.10;34.40
9118;DHT22;4594;50.994;7.126;2024-01-10T01:05:20;-4.10;34.40
9118;DHT22;4594;50.994;7.126;2024-01-10T01:07:45;-4.10;34.30
9118;DHT22;4594;50.994;7.126;2024-01-10T01:10:11;-4.10;34.30
9118;DHT22;4594;50.994;7.126;2024-01-10T01:12:37;-4.20;34.20
9118;DHT22;4594;50.994;7.126;2024-01-10T01:15:04;-4.20;34.20
9118;DHT22;4594;50.994;7.126;2024-01-10T01:17:30;-4.20;34.30
9118;DHT22;4594;50.994;7.126;2024-01-10T01:19:56;-4.20;34.30
9118;DHT22;4594;50.994;7.126;2024-01-10T01:22:22;-4.20;34.30
9118;DHT22;4594;50.994;7.126;2024-01-10T01:24:48;-4.20;34.30
9118;DHT22;4594;50.994;7.126;2024-01-10T01:27:13;-4.20;34.30
9118;DHT22;4594;50.994;7.126;2024-01-10T01:29:39;-4.20;34.30
9118;DHT22;4594;50.994;7.126;2024-01-10T01:32:05;-4.20;34.30
9118;DHT22;4594;50.994;7.126;2024-01-10T01:34:30;-4.20;34.20
9118;DHT22;4594;50.994;7.126;2024-01-10T01:36:56;-4.20;34.30
9118;DHT22;4594;50.994;7.126;2024-01-10T01:39:22;-4.20;34.30
9118;DHT22;4594;50.994;7.126;2024-01-10T01:41:47;-4.20;34.20
9118;DHT22;4594;50.994;7.126;2024-01-10T01:44:13;-4.20;34.20
9118;DHT22;4594;50.994;7.126;2024-01-10T01:46:39;-4.20;34.20
9118;DHT22;4594;50.994;7.126;2024-01-10T01:49:10;-4.20;34.20
9118;DHT22;4594;50.994;7.126;2024-01-10T01:51:36;-4.20;34.20
9118;DHT22;4594;50.994;7.126;2024-01-10T01:54:06;-4.20;34.30
9118;DHT22;4594;50.994;7.126;2024-01-10T01:56:40;-4.20;34.20
9118;DHT22;4594;50.994;7.126;2024-01-10T01:59:08;-4.20;34.20
9118;DHT22;4594;50.994;7.126;2024-01-10T02:01:33;-4.20;34.20
9118;DHT22;4594;50.994;7.126;2024-01-10T02:04:03;-4.20;34.20
9118;DHT22;4594;50.994;7.126;2024-01-10T02:06:29;-4.20;34.10
9118;DHT22;4594;50.994;7.126;2024-01-10T02:08:56;-4.20;34.20
9118;DHT22;4594;50.994;7.126;2024-01-10T02:11:24;-4.20;34.10
9118;DHT22;4594;50.994;7.126;2024-01-10T02:13:51;-4.20;34.10
9118;DHT22;4594;50.994;7.126;2024-01-10T02:16:19;-4.30;34.00
9118;DHT22;4594;50.994;7.126;2024-01-10T02:18:46;-4.30;34.00
9118;DHT22;4594;50.994;7.126;2024-01-10T02:21:12;-4.30;33.90
9118;DHT22;4594;50.994;7.126;2024-01-10T02:23:37;-4.30;33.90
9118;DHT22;4594;50.994;7.126;2024-01-10T02:26:03;-4.30;33.90
9118;DHT22;4594;50.994;7.126;2024-01-10T02:28:29;-4.40;33.80
9118;DHT22;4594;50.994;7.126;2024-01-10T02:30:55;-4.40;33.80
9118;DHT22;4594;50.994;7.126;2024-01-10T02:33:22;-4.40;33.80
9118;DHT22;4594;50.994;7.126;2024-01-10T02:35:47;-4.40;34.20
9118;DHT22;4594;50.994;7.126;2024-01-10T02:38:13;-4.40;33.90
9118;DHT22;4594;50.994;7.126;2024-01-10T02:40:39;-4.50;33.90
9118;DHT22;4594;50.994;7.126;2024-01-10T02:43:04;-4.50;33.90
9118;DHT22;4594;50.994;7.126;2024-01-10T02:45:32;-4.50;33.80
9118;DHT22;4594;50.994;7.126;2024-01-10T02:47:58;-4.50;33.90
9118;DHT22;4594;50.994;7.126;2024-01-10T02:50:23;-4.50;33.90
9118;DHT22;4594;50.994;7.126;2024-01-10T02:52:49;-4.50;33.90
9118;DHT22;4594;50.994;7.126;2024-01-10T02:55:14;-4.50;33.90
9118;DHT22;4594;50.994;7.126;2024-01-10T02:57:40;-4.60;33.70
9118;DHT22;4594;50.994;7.126;2024-01-10T03:00:06;-4.60;33.70
9118;DHT22;4594;50.994;7.126;2024-01-10T03:02:33;-4.60;33.70
9118;DHT22;4594;50.994;7.126;2024-01-10T03:04:58;-4.60;33.70
9118;DHT22;4594;50.994;7.126;2024-01-10T03:07:24;-4.60;33.70
9118;DHT22;4594;50.994;7.126;2024-01-10T03:09:50;-4.60;33.70
9118;DHT22;4594;50.994;7.126;2024-01-10T03:12:16;-4.60;33.80
9118;DHT22;4594;50.994;7.126;2024-01-10T03:14:41;-4.60;33.80
9118;DHT22;4594;50.994;7.126;2024-01-10T03:17:07;-4.70;33.70
9118;DHT22;4594;50.994;7.126;2024-01-10T03:19:33;-4.70;33.80
9118;DHT22;4594;50.994;7.126;2024-01-10T03:21:58;-4.70;33.80
9118;DHT22;4594;50.994;7.126;2024-01-10T03:24:24;-4.70;33.80
9118;DHT22;4594;50.994;7.126;2024-01-10T03:26:52;-4.70;33.90
9118;DHT22;4594;50.994;7.126;2024-01-10T03:29:18;-4.70;33.90
9118;DHT22;4594;50.994;7.126;2024-01-10T03:31:43;-4.70;33.90
9118;DHT22;4594;50.994;7.126;2024-01-10T03:34:09;-4.70;33.90
9118;DHT22;4594;50.994;7.126;2024-01-10T03:36:35;-4.70;33.90
9118;DHT22;4594;50.994;7.126;2024-01-10T03:39:00;-4.70;33.90
9118;DHT22;4594;50.994;7.126;2024-01-10T03:41:26;-4.80;33.80
9118;DHT22;4594;50.994;7.126;2024-01-10T03:43:52;-4.80;33.70
9118;DHT22;4594;50.994;7.126;2024-01-10T03:46:18;-4.80;33.70
9118;DHT22;4594;50.994;7.126;2024-01-10T03:48:43;-4.80;33.70
9118;DHT22;4594;50.994;7.126;2024-01-10T03:51:16;-4.80;33.80
9118;DHT22;4594;50.994;7.126;2024-01-10T03:53:44;-4.80;33.80
9118;DHT22;4594;50.994;7.126;2024-01-10T03:56:11;-4.80;33.90
9118;DHT22;4594;50.994;7.126;2024-01-10T03:58:37;-4.80;33.80
9118;DHT22;4594;50.994;7.126;2024-01-10T04:01:07;-4.80;33.80
9118;DHT22;4594;50.994;7.126;2024-01-10T04:03:34;-4.80;33.80
9118;DHT22;4594;50.994;7.126;2024-01-10T04:06:01;-4.90;33.80
9118;DHT22;4594;50.994;7.126;2024-01-10T04:08:27;-4.90;33.80
9118;DHT22;4594;50.994;7.126;2024-01-10T04:10:53;-4.90;33.80
9118;DHT22;4594;50.994;7.126;2024-01-10T04:13:19;-4.90;33.80
9118;DHT22;4594;50.994;7.126;2024-01-10T04:15:45;-4.90;33.80
9118;DHT22;4594;50.994;7.126;2024-01-10T04:18:10;-4.90;33.80
9118;DHT22;4594;50.994;7.126;2024-01-10T04:20:36;-4.80;33.90
9118;DHT22;4594;50.994;7.126;2024-01-10T04:23:02;-4.80;33.90
9118;DHT22;4594;50.994;7.126;2024-01-10T04:25:28;-4.90;33.90
9118;DHT22;4594;50.994;7.126;2024-01-10T04:27:53;-4.90;33.90
9118;DHT22;4594;50.994;7.126;2024-01-10T04:30:20;-4.90;33.90
9118;DHT22;4594;50.994;7.126;2024-01-10T04:32:46;-4.90;33.90
9118;DHT22;4594;50.994;7.126;2024-01-10T04:35:12;-4.90;33.90
9118;DHT22;4594;50.994;7.126;2024-01-10T04:37:37;-4.90;33.90
9118;DHT22;4594;50.994;7.126;2024-01-10T04:40:03;-4.90;33.90
9118;DHT22;4594;50.994;7.126;2024-01-10T04:42:30;-4.90;33.90
9118;DHT22;4594;50.994;7.126;2024-01-10T04:44:56;-4.90;34.00
9118;DHT22;4594;50.994;7.126;2024-01-10T04:47:22;-4.90;34.10
9118;DHT22;4594;50.994;7.126;2024-01-10T04:49:47;-4.80;34.20
9118;DHT22;4594;50.994;7.126;2024-01-10T04:52:13;-4.80;34.20
9118;DHT22;4594;50.994;7.126;2024-01-10T04:54:39;-4.80;34.10
9118;DHT22;4594;50.994;7.126;2024-01-10T04:57:05;-4.80;34.00
9118;DHT22;4594;50.994;7.126;2024-01-10T04:59:30;-4.80;34.00
9118;DHT22;4594;50.994;7.126;2024-01-10T05:01:56;-4.90;33.90
9118;DHT22;4594;50.994;7.126;2024-01-10T05:04:21;-4.90;33.80
9118;DHT22;4594;50.994;7.126;2024-01-10T05:06:47;-4.90;33.80
9118;DHT22;4594;50.994;7.126;2024-01-10T05:09:13;-4.90;34.10
9118;DHT22;4594;50.994;7.126;2024-01-10T05:11:39;-4.90;33.90
9118;DHT22;4594;50.994;7.126;2024-01-10T05:14:05;-4.90;33.90
9118;DHT22;4594;50.994;7.126;2024-01-10T05:16:30;-4.90;33.80
9118;DHT22;4594;50.994;7.126;2024-01-10T05:18:57;-4.90;33.80
9118;DHT22;4594;50.994;7.126;2024-01-10T05:21:28;-4.90;33.80
9118;DHT22;4594;50.994;7.126;2024-01-10T05:23:55;-4.90;33.80
9118;DHT22;4594;50.994;7.126;2024-01-10T05:26:21;-4.90;33.90
9118;DHT22;4594;50.994;7.126;2024-01-10T05:28:47;-4.90;33.90
9118;DHT22;4594;50.994;7.126;2024-01-10T05:31:13;-4.90;33.90
9118;DHT22;4594;50.994;7.126;2024-01-10T05:33:38;-4.90;33.90
9118;DHT22;4594;50.994;7.126;2024-01-10T05:36:04;-4.90;34.00
9118;DHT22;4594;50.994;7.126;2024-01-10T05:38:30;-4.90;34.00
9118;DHT22;4594;50.994;7.126;2024-01-10T05:40:55;-4.90;34.10
9118;DHT22;4594;50.994;7.126;2024-01-10T05:43:21;-4.80;34.20
9118;DHT22;4594;50.994;7.126;2024-01-10T05:45:47;-4.90;34.20
9118;DHT22;4594;50.994;7.126;2024-01-10T05:48:12;-4.80;34.30
9118;DHT22;4594;50.994;7.126;2024-01-10T05:50:38;-4.80;34.40
9118;DHT22;4594;50.994;7.126;2024-01-10T05:53:04;-4.80;34.40
9118;DHT22;4594;50.994;7.126;2024-01-10T05:55:30;-4.80;34.40
9118;DHT22;4594;50.994;7.126;2024-01-10T05:57:55;-4.70;34.50
9118;DHT22;4594;50.994;7.126;2024-01-10T06:00:21;-4.70;34.50
9118;DHT22;4594;50.994;7.126;2024-01-10T06:02:47;-4.70;34.40
9118;DHT22;4594;50.994;7.126;2024-01-10T06:05:12;-4.60;34.70
9118;DHT22;4594;50.994;7.126;2024-01-10T06:07:39;-4.60;34.80
9118;DHT22;4594;50.994;7.126;2024-01-10T06:10:09;-4.60;34.90
9118;DHT22;4594;50.994;7.126;2024-01-10T06:12:35;-4.50;35.00
9118;DHT22;4594;50.994;7.126;2024-01-10T06:15:01;-4.40;35.10
9118;DHT22;4594;50.994;7.126;2024-01-10T06:17:26;-4.40;35.10
9118;DHT22;4594;50.994;7.126;2024-01-10T06:19:52;-4.30;35.20
9118;DHT22;4594;50.994;7.126;2024-01-10T06:22:18;-4.30;35.20
9118;DHT22;4594;50.994;7.126;2024-01-10T06:24:44;-4.20;35.30
9118;DHT22;4594;50.994;7.126;2024-01-10T06:27:10;-4.20;35.30
9118;DHT22;4594;50.994;7.126;2024-01-10T06:29:36;-4.10;35.30
9118;DHT22;4594;50.994;7.126;2024-01-10T06:32:05;-4.10;35.20
9118;DHT22;4594;50.994;7.126;2024-01-10T06:34:32;-4.00;35.20
9118;DHT22;4594;50.994;7.126;2024-01-10T06:36:59;-4.00;35.20
9118;DHT22;4594;50.994;7.126;2024-01-10T06:39:24;-3.90;35.20
9118;DHT22;4594;50.994;7.126;2024-01-10T06:41:51;-3.90;35.20
9118;DHT22;4594;50.994;7.126;2024-01-10T06:44:16;-3.90;35.10
9118;DHT22;4594;50.994;7.126;2024-01-10T06:46:45;-3.80;35.20
9118;DHT22;4594;50.994;7.126;2024-01-10T06:49:11;-3.80;35.20
9118;DHT22;4594;50.994;7.126;2024-01-10T06:51:37;-3.80;35.10
9118;DHT22;4594;50.994;7.126;2024-01-10T06:54:03;-3.70;35.20
9118;DHT22;4594;50.994;7.126;2024-01-10T06:56:30;-3.70;35.10
9118;DHT22;4594;50.994;7.126;2024-01-10T06:58:57;-3.70;35.20
9118;DHT22;4594;50.994;7.126;2024-01-10T07:01:27;-3.70;35.20
9118;DHT22;4594;50.994;7.126;2024-01-10T07:03:54;-3.70;35.10
9118;DHT22;4594;50.994;7.126;2024-01-10T07:06:23;-3.60;35.20
9118;DHT22;4594;50.994;7.126;2024-01-10T07:08:49;-3.60;35.20
9118;DHT22;4594;50.994;7.126;2024-01-10T07:11:17;-3.60;35.20
9118;DHT22;4594;50.994;7.126;2024-01-10T07:13:44;-3.60;35.10
9118;DHT22;4594;50.994;7.126;2024-01-10T07:16:10;-3.50;35.30
9118;DHT22;4594;50.994;7.126;2024-01-10T07:18:36;-3.50;35.20
9118;DHT22;4594;50.994;7.126;2024-01-10T07:21:02;-3.50;35.30
9118;DHT22;4594;50.994;7.126;2024-01-10T07:23:28;-3.50;35.40
9118;DHT22;4594;50.994;7.126;2024-01-10T07:25:54;-3.50;35.30
9118;DHT22;4594;50.994;7.126;2024-01-10T07:28:19;-3.40;35.30
9118;DHT22;4594;50.994;7.126;2024-01-10T07:30:46;-3.40;35.40
9118;DHT22;4594;50.994;7.126;2024-01-10T07:33:11;-3.40;35.30
9118;DHT22;4594;50.994;7.126;2024-01-10T07:35:37;-3.40;35.30
9118;DHT22;4594;50.994;7.126;2024-01-10T07:38:04;-3.40;35.30
9118;DHT22;4594;50.994;7.126;2024-01-10T07:40:34;-3.30;35.30
9118;DHT22;4594;50.994;7.126;2024-01-10T07:43:02;-3.30;35.40
9118;DHT22;4594;50.994;7.126;2024-01-10T07:45:27;-3.30;35.40
9118;DHT22;4594;50.994;7.126;2024-01-10T07:47:54;-3.30;35.40
9118;DHT22;4594;50.994;7.126;2024-01-10T07:50:20;-3.30;35.80
9118;DHT22;4594;50.994;7.126;2024-01-10T07:52:46;-3.20;35.60
9118;DHT22;4594;50.994;7.126;2024-01-10T07:55:12;-3.20;35.50
9118;DHT22;4594;50.994;7.126;2024-01-10T07:57:38;-3.20;35.50
9118;DHT22;4594;50.994;7.126;2024-01-10T08:00:05;-3.20;35.60
9118;DHT22;4594;50.994;7.126;2024-01-10T08:02:38;-3.10;35.60
9118;DHT22;4594;50.994;7.126;2024-01-10T08:05:05;-3.10;35.60
9118;DHT22;4594;50.994;7.126;2024-01-10T08:07:35;-3.10;35.60
9118;DHT22;4594;50.994;7.126;2024-01-10T08:10:06;-3.00;35.70
9118;DHT22;4594;50.994;7.126;2024-01-10T08:12:33;-3.00;35.70
9118;DHT22;4594;50.994;7.126;2024-01-10T08:14:58;-3.00;35.70
9118;DHT22;4594;50.994;7.126;2024-01-10T08:17:24;-2.90;35.80
9118;DHT22;4594;50.994;7.126;2024-01-10T08:19:50;-2.90;35.80
9118;DHT22;4594;50.994;7.126;2024-01-10T08:22:17;-2.80;36.00
9118;DHT22;4594;50.994;7.126;2024-01-10T08:24:45;-2.80;36.00
9118;DHT22;4594;50.994;7.126;2024-01-10T08:27:11;-2.80;35.90
9118;DHT22;4594;50.994;7.126;2024-01-10T08:29:37;-2.70;36.00
9118;DHT22;4594;50.994;7.126;2024-01-10T08:32:03;-2.70;36.10
9118;DHT22;4594;50.994;7.126;2024-01-10T08:34:29;-2.60;36.20
9118;DHT22;4594;50.994;7.126;2024-01-10T08:36:55;-2.60;36.30
9118;DHT22;4594;50.994;7.126;2024-01-10T08:39:21;-2.50;36.70
9118;DHT22;4594;50.994;7.126;2024-01-10T08:41:47;-2.40;37.00
9118;DHT22;4594;50.994;7.126;2024-01-10T08:44:13;-2.30;37.30
9118;DHT22;4594;50.994;7.126;2024-01-10T08:46:39;-2.10;37.70
9118;DHT22;4594;50.994;7.126;2024-01-10T08:49:05;-2.00;38.10
9118;DHT22;4594;50.994;7.126;2024-01-10T08:51:30;-1.80;38.50
9118;DHT22;4594;50.994;7.126;2024-01-10T08:53:56;-1.60;39.10
9118;DHT22;4594;50.994;7.126;2024-01-10T08:56:23;-1.30;39.80
9118;DHT22;4594;50.994;7.126;2024-01-10T08:58:52;-1.00;40.40
9118;DHT22;4594;50.994;7.126;2024-01-10T09:01:18;-0.80;40.80
9118;DHT22;4594;50.994;7.126;2024-01-10T09:03:44;-0.50;41.20
9118;DHT22;4594;50.994;7.126;2024-01-10T09:06:10;-0.30;41.40
9118;DHT22;4594;50.994;7.126;2024-01-10T09:08:36;0.00;41.40
9118;DHT22;4594;50.994;7.126;2024-01-10T09:11:02;0.20;41.20
9118;DHT22;4594;50.994;7.126;2024-01-10T09:13:28;0.30;41.00
9118;DHT22;4594;50.994;7.126;2024-01-10T09:15:54;0.40;40.80
9118;DHT22;4594;50.994;7.126;2024-01-10T09:18:19;0.60;40.80
9118;DHT22;4594;50.994;7.126;2024-01-10T09:20:45;0.70;40.60
9118;DHT22;4594;50.994;7.126;2024-01-10T09:23:11;0.80;40.30
9118;DHT22;4594;50.994;7.126;2024-01-10T09:25:37;0.80;40.10
9118;DHT22;4594;50.994;7.126;2024-01-10T09:28:06;0.90;40.00
9118;DHT22;4594;50.994;7.126;2024-01-10T09:30:31;0.90;39.60
9118;DHT22;4594;50.994;7.126;2024-01-10T09:32:57;0.90;39.90
9118;DHT22;4594;50.994;7.126;2024-01-10T09:35:24;1.00;39.90
9118;DHT22;4594;50.994;7.126;2024-01-10T09:37:50;1.00;39.90
9118;DHT22;4594;50.994;7.126;2024-01-10T09:40:16;1.10;40.00
9118;DHT22;4594;50.994;7.126;2024-01-10T09:42:44;1.10;40.20
9118;DHT22;4594;50.994;7.126;2024-01-10T09:45:10;1.20;40.40
9118;DHT22;4594;50.994;7.126;2024-01-10T09:47:39;1.30;40.80
9118;DHT22;4594;50.994;7.126;2024-01-10T09:50:08;1.40;40.90
9118;DHT22;4594;50.994;7.126;2024-01-10T09:52:58;1.60;41.00
9118;DHT22;4594;50.994;7.126;2024-01-10T09:55:34;1.70;39.80
9118;DHT22;4594;50.994;7.126;2024-01-10T09:58:10;1.80;40.90
9118;DHT22;4594;50.994;7.126;2024-01-10T10:00:36;2.00;40.40
9118;DHT22;4594;50.994;7.126;2024-01-10T10:03:04;2.10;41.20
9118;DHT22;4594;50.994;7.126;2024-01-10T10:05:32;2.10;40.70
9118;DHT22;4594;50.994;7.126;2024-01-10T10:07:59;2.20;40.60
9118;DHT22;4594;50.994;7.126;2024-01-10T10:10:25;2.20;40.30
9118;DHT22;4594;50.994;7.126;2024-01-10T10:12:54;2.30;40.10
9118;DHT22;4594;50.994;7.126;2024-01-10T10:15:22;2.30;39.80
9118;DHT22;4594;50.994;7.126;2024-01-10T10:17:49;2.30;39.40
9118;DHT22;4594;50.994;7.126;2024-01-10T10:20:27;2.30;39.40
9118;DHT22;4594;50.994;7.126;2024-01-10T10:23:01;2.30;38.50
9118;DHT22;4594;50.994;7.126;2024-01-10T10:25:37;2.20;38.60
9118;DHT22;4594;50.994;7.126;2024-01-10T10:28:08;2.20;39.00
9118;DHT22;4594;50.994;7.126;2024-01-10T10:30:34;2.20;39.10
9118;DHT22;4594;50.994;7.126;2024-01-10T10:33:04;2.20;39.10
9118;DHT22;4594;50.994;7.126;2024-01-10T10:35:33;2.20;39.00
9118;DHT22;4594;50.994;7.126;2024-01-10T10:37:59;2.20;39.40
9118;DHT22;4594;50.994;7.126;2024-01-10T10:40:25;2.20;39.40
9118;DHT22;4594;50.994;7.126;2024-01-10T10:42:55;2.30;39.50
9118;DHT22;4594;50.994;7.126;2024-01-10T10:45:24;2.30;39.00
9118;DHT22;4594;50.994;7.126;2024-01-10T10:47:58;2.30;39.30
9118;DHT22;4594;50.994;7.126;2024-01-10T10:50:28;2.30;38.90
9118;DHT22;4594;50.994;7.126;2024-01-10T10:53:03;2.40;39.10
9118;DHT22;4594;50.994;7.126;2024-01-10T10:55:29;2.40;39.40
9118;DHT22;4594;50.994;7.126;2024-01-10T10:57:57;2.50;39.50
9118;DHT22;4594;50.994;7.126;2024-01-10T11:00:23;2.50;39.30
9118;DHT22;4594;50.994;7.126;2024-01-10T11:02:55;2.50;39.30
9118;DHT22;4594;50.994;7.126;2024-01-10T11:05:23;2.60;39.00
9118;DHT22;4594;50.994;7.126;2024-01-10T11:07:49;2.60;39.20
9118;DHT22;4594;50.994;7.126;2024-01-10T11:13:00;2.60;38.90
9118;DHT22;4594;50.994;7.126;2024-01-10T11:25:02;2.60;38.40
9118;DHT22;4594;50.994;7.126;2024-01-10T11:27:28;2.60;39.30
9118;DHT22;4594;50.994;7.126;2024-01-10T11:29:55;2.60;39.40
9118;DHT22;4594;50.994;7.126;2024-01-10T11:32:22;2.60;39.40
9118;DHT22;4594;50.994;7.126;2024-01-10T11:34:57;2.70;39.50
9118;DHT22;4594;50.994;7.126;2024-01-10T11:37:43;2.70;39.40
9118;DHT22;4594;50.994;7.126;2024-01-10T11:40:11;2.70;39.30
9118;DHT22;4594;50.994;7.126;2024-01-10T11:42:46;2.80;39.70
9118;DHT22;4594;50.994;7.126;2024-01-10T11:48:00;2.90;39.00
9118;DHT22;4594;50.994;7.126;2024-01-10T11:50:26;3.00;40.20
9118;DHT22;4594;50.994;7.126;2024-01-10T11:52:54;3.00;40.30
9118;DHT22;4594;50.994;7.126;2024-01-10T11:55:49;3.10;40.30
9118;DHT22;4594;50.994;7.126;2024-01-10T11:58:17;3.20;39.10
9118;DHT22;4594;50.994;7.126;2024-01-10T12:00:43;3.30;40.50
9118;DHT22;4594;50.994;7.126;2024-01-10T12:03:11;3.30;40.40
9118;DHT22;4594;50.994;7.126;2024-01-10T12:05:37;3.40;40.00
9118;DHT22;4594;50.994;7.126;2024-01-10T12:08:07;3.50;40.30
9118;DHT22;4594;50.994;7.126;2024-01-10T12:10:33;3.60;40.00
9118;DHT22;4594;50.994;7.126;2024-01-10T12:13:03;3.70;40.60
9118;DHT22;4594;50.994;7.126;2024-01-10T12:15:29;3.80;40.50
9118;DHT22;4594;50.994;7.126;2024-01-10T12:17:55;3.90;40.90
9118;DHT22;4594;50.994;7.126;2024-01-10T12:20:21;3.90;40.80
9118;DHT22;4594;50.994;7.126;2024-01-10T12:22:47;4.00;40.60
9118;DHT22;4594;50.994;7.126;2024-01-10T12:25:13;4.00;40.10
9118;DHT22;4594;50.994;7.126;2024-01-10T12:27:39;4.10;40.20
9118;DHT22;4594;50.994;7.126;2024-01-10T12:30:06;4.10;39.80
9118;DHT22;4594;50.994;7.126;2024-01-10T12:32:33;4.10;39.80
9118;DHT22;4594;50.994;7.126;2024-01-10T12:35:02;4.20;40.30
9118;DHT22;4594;50.994;7.126;2024-01-10T12:37:29;4.20;39.10
9118;DHT22;4594;50.994;7.126;2024-01-10T12:39:58;4.20;39.70
9118;DHT22;4594;50.994;7.126;2024-01-10T12:42:23;4.20;39.40
9118;DHT22;4594;50.994;7.126;2024-01-10T12:44:49;4.10;39.40
9118;DHT22;4594;50.994;7.126;2024-01-10T12:47:22;4.10;39.20
9118;DHT22;4594;50.994;7.126;2024-01-10T12:49:49;4.20;38.70
9118;DHT22;4594;50.994;7.126;2024-01-10T12:52:15;4.20;39.40
9118;DHT22;4594;50.994;7.126;2024-01-10T12:54:41;4.20;39.10
9118;DHT22;4594;50.994;7.126;2024-01-10T12:57:07;4.20;39.40
9118;DHT22;4594;50.994;7.126;2024-01-10T12:59:33;4.20;39.50
9118;DHT22;4594;50.994;7.126;2024-01-10T13:02:00;4.20;39.40
9118;DHT22;4594;50.994;7.126;2024-01-10T13:04:26;4.30;39.50
9118;DHT22;4594;50.994;7.126;2024-01-10T13:06:52;4.20;39.60
9118;DHT22;4594;50.994;7.126;2024-01-10T13:09:17;4.30;39.40
9118;DHT22;4594;50.994;7.126;2024-01-10T13:11:43;4.30;39.60
9118;DHT22;4594;50.994;7.126;2024-01-10T13:14:10;4.30;39.20
9118;DHT22;4594;50.994;7.126;2024-01-10T13:16:37;4.30;39.30
9118;DHT22;4594;50.994;7.126;2024-01-10T13:19:03;4.30;39.60
9118;DHT22;4594;50.994;7.126;2024-01-10T13:21:29;4.30;39.20
9118;DHT22;4594;50.994;7.126;2024-01-10T13:23:55;4.30;39.30
9118;DHT22;4594;50.994;7.126;2024-01-10T13:26:20;4.30;39.30
9118;DHT22;4594;50.994;7.126;2024-01-10T13:28:46;4.30;39.50
9118;DHT22;4594;50.994;7.126;2024-01-10T13:31:12;4.30;39.50
9118;DHT22;4594;50.994;7.126;2024-01-10T13:33:38;4.30;39.50
9118;DHT22;4594;50.994;7.126;2024-01-10T13:36:04;4.30;39.50
9118;DHT22;4594;50.994;7.126;2024-01-10T13:38:31;4.40;39.60
9118;DHT22;4594;50.994;7.126;2024-01-10T13:40:57;4.40;39.70
9118;DHT22;4594;50.994;7.126;2024-01-10T13:43:23;4.40;39.60
9118;DHT22;4594;50.994;7.126;2024-01-10T13:45:48;4.40;39.60
9118;DHT22;4594;50.994;7.126;2024-01-10T13:48:14;4.40;39.50
9118;DHT22;4594;50.994;7.126;2024-01-10T13:50:41;4.40;39.50
9118;DHT22;4594;50.994;7.126;2024-01-10T13:53:07;4.40;39.50
9118;DHT22;4594;50.994;7.126;2024-01-10T13:55:33;4.40;39.50
9118;DHT22;4594;50.994;7.126;2024-01-10T13:58:00;4.40;39.30
9118;DHT22;4594;50.994;7.126;2024-01-10T14:00:26;4.40;39.50
9118;DHT22;4594;50.994;7.126;2024-01-10T14:02:52;4.50;39.80
9118;DHT22;4594;50.994;7.126;2024-01-10T14:05:24;4.50;39.90
9118;DHT22;4594;50.994;7.126;2024-01-10T14:07:51;4.50;39.80
9118;DHT22;4594;50.994;7.126;2024-01-10T14:10:16;4.50;40.10
9118;DHT22;4594;50.994;7.126;2024-01-10T14:12:42;4.40;39.80
9118;DHT22;4594;50.994;7.126;2024-01-10T14:15:08;4.40;39.70
9118;DHT22;4594;50.994;7.126;2024-01-10T14:17:34;4.40;39.60
9118;DHT22;4594;50.994;7.126;2024-01-10T14:20:00;4.40;39.60
9118;DHT22;4594;50.994;7.126;2024-01-10T14:22:26;4.40;39.60
9118;DHT22;4594;50.994;7.126;2024-01-10T14:24:52;4.40;39.70
9118;DHT22;4594;50.994;7.126;2024-01-10T14:27:19;4.40;39.40
9118;DHT22;4594;50.994;7.126;2024-01-10T14:29:45;4.40;39.40
9118;DHT22;4594;50.994;7.126;2024-01-10T14:32:12;4.40;39.30
9118;DHT22;4594;50.994;7.126;2024-01-10T14:34:40;4.40;39.30
9118;DHT22;4594;50.994;7.126;2024-01-10T14:37:07;4.40;38.70
9118;DHT22;4594;50.994;7.126;2024-01-10T14:39:34;4.30;39.00
9118;DHT22;4594;50.994;7.126;2024-01-10T14:42:07;4.30;39.00
9118;DHT22;4594;50.994;7.126;2024-01-10T14:44:34;4.30;39.10
9118;DHT22;4594;50.994;7.126;2024-01-10T14:47:01;4.30;38.90
9118;DHT22;4594;50.994;7.126;2024-01-10T14:49:26;4.20;38.90
9118;DHT22;4594;50.994;7.126;2024-01-10T14:51:52;4.20;38.90
9118;DHT22;4594;50.994;7.126;2024-01-10T14:54:18;4.20;39.00
9118;DHT22;4594;50.994;7.126;2024-01-10T14:56:45;4.20;39.10
9118;DHT22;4594;50.994;7.126;2024-01-10T14:59:12;4.10;39.10
9118;DHT22;4594;50.994;7.126;2024-01-10T15:01:37;4.10;39.10
9118;DHT22;4594;50.994;7.126;2024-01-10T15:04:03;4.10;39.00
9118;DHT22;4594;50.994;7.126;2024-01-10T15:06:29;4.10;39.10
9118;DHT22;4594;50.994;7.126;2024-01-10T15:08:55;4.10;39.10
9118;DHT22;4594;50.994;7.126;2024-01-10T15:11:20;4.10;39.20
9118;DHT22;4594;50.994;7.126;2024-01-10T15:13:46;4.00;39.10
9118;DHT22;4594;50.994;7.126;2024-01-10T15:16:12;4.00;39.10
9118;DHT22;4594;50.994;7.126;2024-01-10T15:18:41;4.00;39.10
9118;DHT22;4594;50.994;7.126;2024-01-10T15:21:09;4.00;39.20
9118;DHT22;4594;50.994;7.126;2024-01-10T15:23:37;4.00;39.00
9118;DHT22;4594;50.994;7.126;2024-01-10T15:26:02;4.00;39.20
9118;DHT22;4594;50.994;7.126;2024-01-10T15:28:29;4.00;39.20
9118;DHT22;4594;50.994;7.126;2024-01-10T15:30:55;4.00;39.10
9118;DHT22;4594;50.994;7.126;2024-01-10T15:33:20;4.00;39.00
9118;DHT22;4594;50.994;7.126;2024-01-10T15:35:46;4.00;39.00
9118;DHT22;4594;50.994;7.126;2024-01-10T15:38:12;4.00;38.90
9118;DHT22;4594;50.994;7.126;2024-01-10T15:40:37;3.90;38.90
9118;DHT22;4594;50.994;7.126;2024-01-10T15:43:05;3.90;38.80
9118;DHT22;4594;50.994;7.126;2024-01-10T15:45:30;3.90;38.80
9118;DHT22;4594;50.994;7.126;2024-01-10T15:47:57;3.80;38.70
9118;DHT22;4594;50.994;7.126;2024-01-10T15:50:22;3.80;38.70
9118;DHT22;4594;50.994;7.126;2024-01-10T15:52:48;3.70;38.70
9118;DHT22;4594;50.994;7.126;2024-01-10T15:55:16;3.70;38.50
9118;DHT22;4594;50.994;7.126;2024-01-10T15:57:43;3.60;38.40
9118;DHT22;4594;50.994;7.126;2024-01-10T16:00:13;3.50;38.30
9118;DHT22;4594;50.994;7.126;2024-01-10T16:02:39;3.50;38.20
9118;DHT22;4594;50.994;7.126;2024-01-10T16:05:07;3.40;38.20
9118;DHT22;4594;50.994;7.126;2024-01-10T16:07:35;3.40;38.20
9118;DHT22;4594;50.994;7.126;2024-01-10T16:10:00;3.30;38.10
9118;DHT22;4594;50.994;7.126;2024-01-10T16:12:26;3.20;38.00
9118;DHT22;4594;50.994;7.126;2024-01-10T16:14:52;3.10;37.90
9118;DHT22;4594;50.994;7.126;2024-01-10T16:17:17;3.00;37.90
9118;DHT22;4594;50.994;7.126;2024-01-10T16:19:43;3.00;37.90
9118;DHT22;4594;50.994;7.126;2024-01-10T16:22:09;2.90;37.80
9118;DHT22;4594;50.994;7.126;2024-01-10T16:24:34;2.80;37.70